Time;durP1;ratioP1;P1;durP2;ratioP2;P2;SDS_P1;SDS_P2;PMS_P1;PMS_P2;Temp;Humidity;BMP_temperature;BMP_pressure;BME280_temperature;BME280_humidity;BME280_pressure;Samples;Min_cycle;Max_cycle;Signal;HPM_P1;HPM_P2
2023/10/30 00:01:57;;;;;;;9.70;1.92;;;10.40;99.90;;;;;;5000166;28;20046;-69
2023/10/30 00:04:24;;;;;;;18.48;2.75;;;10.40;99.90;;;;;;4997207;28;20077;-69
2023/10/30 00:06:51;;;;;;;12.88;2.40;;;10.50;99.90;;;;;;4993922;28;20046;-69
2023/10/30 00:09:18;;;;;;;13.73;1.80;;;10.40;99.90;;;;;;4997595;28;20066;-70
2023/10/30 00:11:46;;;;;;;14.20;2.65;;;10.50;99.90;;;;;;5000929;28;20046;-69
2023/10/30 00:14:14;;;;;;;13.50;2.58;;;10.40;99.90;;;;;;4993560;28;20049;-69
2023/10/30 00:16:41;;;;;;;15.98;2.40;;;10.50;99.90;;;;;;4993836;28;20050;-71
2023/10/30 00:19:08;;;;;;;11.75;2.17;;;10.50;99.90;;;;;;4986496;28;20157;-71
2023/10/30 00:21:36;;;;;;;10.63;1.77;;;10.50;99.90;;;;;;5002506;28;20061;-68
2023/10/30 00:24:03;;;;;;;21.08;4.07;;;10.50;99.90;;;;;;4994315;28;20085;-72
2023/10/30 00:26:30;;;;;;;11.57;1.95;;;10.50;99.90;;;;;;5004725;28;20042;-71
2023/10/30 00:28:57;;;;;;;18.20;3.90;;;10.50;99.90;;;;;;4993016;28;20046;-71
2023/10/30 00:31:25;;;;;;;18.85;2.40;;;10.50;99.90;;;;;;4988186;28;20540;-70
2023/10/30 00:33:53;;;;;;;16.27;2.42;;;10.50;99.90;;;;;;4997326;28;20092;-69
2023/10/30 00:36:20;;;;;;;14.32;2.35;;;10.50;99.90;;;;;;4991513;28;20104;-70
2023/10/30 00:38:47;;;;;;;15.85;2.63;;;10.50;99.90;;;;;;4994040;28;20394;-70
2023/10/30 00:41:13;;;;;;;20.67;2.97;;;10.50;99.90;;;;;;4990871;28;20058;-70
2023/10/30 00:43:40;;;;;;;13.93;3.00;;;10.50;99.90;;;;;;4996110;28;20092;-70
2023/10/30 00:46:07;;;;;;;20.20;2.95;;;10.50;99.90;;;;;;4994304;28;20050;-71
2023/10/30 00:48:34;;;;;;;22.40;3.92;;;10.50;99.90;;;;;;4996507;28;20050;-70
2023/10/30 00:51:01;;;;;;;18.58;3.35;;;10.50;99.90;;;;;;4989151;28;20117;-71
2023/10/30 00:53:28;;;;;;;16.13;2.35;;;10.50;99.90;;;;;;4994300;28;20049;-71
2023/10/30 00:55:55;;;;;;;14.70;2.20;;;10.60;99.90;;;;;;5002280;28;20078;-71
2023/10/30 00:58:21;;;;;;;18.20;2.50;;;10.50;99.90;;;;;;4999857;28;20248;-71
2023/10/30 01:00:48;;;;;;;17.13;2.78;;;10.60;99.90;;;;;;4991874;28;20042;-71
2023/10/30 01:03:19;;;;;;;12.25;2.55;;;10.60;99.90;;;;;;4991812;28;20065;-70
2023/10/30 01:05:47;;;;;;;15.25;1.90;;;10.60;99.90;;;;;;4999874;28;20119;-70
2023/10/30 01:08:14;;;;;;;17.00;2.83;;;10.60;99.90;;;;;;5003368;28;20050;-70
2023/10/30 01:10:43;;;;;;;15.48;3.38;;;10.60;99.90;;;;;;4994065;28;20042;-69
2023/10/30 01:13:10;;;;;;;17.65;3.05;;;10.60;99.90;;;;;;5004010;28;20097;-70
2023/10/30 01:15:37;;;;;;;21.77;4.10;;;10.60;99.90;;;;;;5003175;28;20045;-70
2023/10/30 01:18:04;;;;;;;20.48;2.80;;;10.60;99.90;;;;;;4981386;28;20076;-69
2023/10/30 01:20:32;;;;;;;13.63;2.40;;;10.60;99.90;;;;;;4992733;28;20047;-69
2023/10/30 01:22:59;;;;;;;22.17;4.20;;;10.60;99.90;;;;;;5010804;28;20076;-71
2023/10/30 01:25:25;;;;;;;26.70;3.00;;;10.60;99.90;;;;;;5000667;28;20469;-70
2023/10/30 01:27:52;;;;;;;22.13;3.03;;;10.60;99.90;;;;;;5010770;28;20042;-70
2023/10/30 01:30:19;;;;;;;20.30;2.70;;;10.60;99.90;;;;;;4988451;28;20058;-70
2023/10/30 01:32:46;;;;;;;18.83;2.60;;;10.70;99.90;;;;;;5009362;28;20142;-69
2023/10/30 01:35:13;;;;;;;15.32;2.20;;;10.70;99.90;;;;;;5002821;28;20108;-70
2023/10/30 01:37:40;;;;;;;21.20;3.25;;;10.70;99.90;;;;;;5007690;28;20133;-70
2023/10/30 01:40:07;;;;;;;20.70;2.85;;;10.60;99.90;;;;;;5004707;28;20081;-70
2023/10/30 01:42:34;;;;;;;14.32;3.22;;;10.60;99.90;;;;;;5005118;28;20049;-70
2023/10/30 01:45:01;;;;;;;22.95;4.28;;;10.70;99.90;;;;;;5005662;28;20039;-69
2023/10/30 01:47:28;;;;;;;13.30;2.80;;;10.70;99.90;;;;;;4652769;28;10000603;-70
2023/10/30 01:49:55;;;;;;;15.57;4.53;;;10.70;99.90;;;;;;4999964;28;20050;-70
2023/10/30 01:52:24;;;;;;;19.27;4.03;;;10.70;99.90;;;;;;5007440;28;20048;-70
2023/10/30 01:54:51;;;;;;;14.18;2.70;;;10.70;99.90;;;;;;5006166;28;20045;-70
2023/10/30 01:57:20;;;;;;;14.80;2.90;;;10.70;99.90;;;;;;4991455;28;20042;-71
2023/10/30 01:59:53;;;;;;;20.52;2.38;;;10.70;99.90;;;;;;5012586;28;20081;-70
2023/10/30 02:02:20;;;;;;;16.92;3.10;;;10.70;99.90;;;;;;5002939;28;20528;-69
2023/10/30 02:04:47;;;;;;;15.07;2.10;;;10.70;99.90;;;;;;5010803;28;20046;-69
2023/10/30 02:07:14;;;;;;;26.13;2.95;;;10.70;99.90;;;;;;5001639;28;20779;-68
2023/10/30 02:09:42;;;;;;;18.25;3.00;;;10.70;99.90;;;;;;5012722;28;20082;-68
2023/10/30 02:12:10;;;;;;;12.50;3.38;;;10.70;99.90;;;;;;5004592;28;20112;-69
2023/10/30 02:14:37;;;;;;;18.25;2.53;;;10.70;99.90;;;;;;5013698;28;20448;-69
2023/10/30 02:17:04;;;;;;;18.88;3.20;;;10.70;99.90;;;;;;4992895;28;20112;-69
2023/10/30 02:19:31;;;;;;;12.70;2.92;;;10.70;99.90;;;;;;5011443;28;20041;-67
2023/10/30 02:21:57;;;;;;;13.88;2.28;;;10.70;99.90;;;;;;5001598;28;20207;-69
2023/10/30 02:24:24;;;;;;;19.38;2.92;;;10.70;99.90;;;;;;5000266;28;20089;-69
2023/10/30 02:26:51;;;;;;;16.60;2.08;;;10.70;99.90;;;;;;5001490;28;20053;-69
2023/10/30 02:29:18;;;;;;;15.93;3.60;;;10.70;99.90;;;;;;4993477;28;20050;-68
2023/10/30 02:31:45;;;;;;;12.43;2.13;;;10.70;99.90;;;;;;4997862;28;20237;-69
2023/10/30 02:34:12;;;;;;;24.88;4.05;;;10.70;99.90;;;;;;4990024;28;20057;-69
2023/10/30 02:36:39;;;;;;;21.10;2.67;;;10.70;99.90;;;;;;4988956;28;20089;-68
2023/10/30 02:39:07;;;;;;;24.98;3.05;;;10.70;99.90;;;;;;4991380;28;20045;-68
2023/10/30 02:41:34;;;;;;;15.65;3.60;;;10.70;99.90;;;;;;4993469;28;20054;-68
2023/10/30 02:44:01;;;;;;;24.80;6.00;;;10.70;99.90;;;;;;5002597;28;20077;-69
2023/10/30 02:46:27;;;;;;;19.75;4.30;;;10.70;99.90;;;;;;4985408;28;20051;-69
2023/10/30 02:48:54;;;;;;;17.70;3.47;;;10.80;99.90;;;;;;4994227;28;20050;-69
2023/10/30 02:51:21;;;;;;;22.80;3.10;;;10.80;99.90;;;;;;4992491;28;20077;-68
2023/10/30 02:53:48;;;;;;;11.27;2.47;;;10.80;99.90;;;;;;4994879;28;20640;-68
2023/10/30 02:56:15;;;;;;;26.33;4.28;;;10.80;99.90;;;;;;4976662;28;20494;-68
2023/10/30 02:58:41;;;;;;;19.98;3.45;;;10.80;99.90;;;;;;4989253;28;20073;-69
2023/10/30 03:01:08;;;;;;;13.77;3.40;;;10.90;99.90;;;;;;4990493;28;20527;-69
2023/10/30 03:03:35;;;;;;;12.85;2.47;;;10.90;99.90;;;;;;4994745;28;20038;-69
2023/10/30 03:06:02;;;;;;;22.75;3.08;;;10.90;99.90;;;;;;4990917;28;20090;-68
2023/10/30 03:08:29;;;;;;;20.48;3.45;;;10.90;99.90;;;;;;4995285;28;20457;-69
2023/10/30 03:10:56;;;;;;;17.08;2.97;;;11.00;99.90;;;;;;4990739;28;20506;-68
2023/10/30 03:13:23;;;;;;;22.90;4.10;;;11.00;99.90;;;;;;4996076;28;20096;-68
2023/10/30 03:15:50;;;;;;;14.95;3.08;;;11.00;99.90;;;;;;5001842;28;20441;-69
2023/10/30 03:18:17;;;;;;;21.20;3.28;;;11.00;99.90;;;;;;4998137;28;20096;-69
2023/10/30 03:20:44;;;;;;;14.10;2.72;;;10.90;99.90;;;;;;4992067;28;20458;-69
2023/10/30 03:23:11;;;;;;;22.52;4.55;;;10.90;99.90;;;;;;4997968;28;20053;-68
2023/10/30 03:25:37;;;;;;;24.35;3.70;;;10.80;99.90;;;;;;4999079;28;20046;-69
2023/10/30 03:28:04;;;;;;;14.25;3.15;;;10.80;99.90;;;;;;5001579;28;20042;-70
2023/10/30 03:30:34;;;;;;;19.05;3.08;;;10.80;99.90;;;;;;4998470;28;20073;-70
2023/10/30 03:33:03;;;;;;;18.63;3.10;;;10.70;99.90;;;;;;5003877;28;20069;-68
2023/10/30 03:35:30;;;;;;;16.25;2.78;;;10.80;99.90;;;;;;4995540;28;20733;-69
2023/10/30 03:37:57;;;;;;;21.80;3.47;;;10.70;99.90;;;;;;5005575;28;20116;-68
2023/10/30 03:40:24;;;;;;;17.48;2.55;;;10.80;99.90;;;;;;5004307;28;20056;-68
2023/10/30 03:42:50;;;;;;;15.88;2.35;;;10.80;99.90;;;;;;4991993;28;20097;-69
2023/10/30 03:45:17;;;;;;;18.80;3.47;;;10.70;99.90;;;;;;4994213;28;20317;-68
2023/10/30 03:47:45;;;;;;;18.90;3.00;;;10.70;99.90;;;;;;5006173;28;20058;-68
2023/10/30 03:50:16;;;;;;;12.70;2.17;;;10.70;99.90;;;;;;4994086;28;20074;-68
2023/10/30 03:52:44;;;;;;;20.73;5.40;;;10.60;99.90;;;;;;5005546;28;20772;-69
2023/10/30 03:55:11;;;;;;;19.63;2.95;;;10.70;99.90;;;;;;4996345;28;20458;-68
2023/10/30 03:57:40;;;;;;;15.10;2.40;;;10.60;99.90;;;;;;5004628;28;20124;-68
2023/10/30 04:00:08;;;;;;;22.23;3.92;;;10.60;99.90;;;;;;4994833;28;20053;-68
2023/10/30 04:02:35;;;;;;;21.92;3.05;;;10.60;99.90;;;;;;4990537;28;20054;-68
2023/10/30 04:05:02;;;;;;;23.38;4.53;;;10.60;99.90;;;;;;4991829;28;20488;-69
2023/10/30 04:07:29;;;;;;;15.82;2.42;;;10.60;99.90;;;;;;4993576;28;20092;-68
2023/10/30 04:09:55;;;;;;;21.23;3.03;;;10.50;99.90;;;;;;4991907;28;20520;-69
2023/10/30 04:12:22;;;;;;;11.80;2.78;;;10.50;99.90;;;;;;4997537;28;20049;-68
2023/10/30 04:14:51;;;;;;;24.30;3.22;;;10.50;99.90;;;;;;5003190;28;20456;-68
2023/10/30 04:17:17;;;;;;;21.15;3.90;;;10.50;99.90;;;;;;4997439;28;20181;-68
2023/10/30 04:19:44;;;;;;;23.13;3.95;;;10.40;99.90;;;;;;5000566;28;20051;-69
2023/10/30 04:22:11;;;;;;;21.02;2.80;;;10.50;99.90;;;;;;4995761;28;20046;-69
2023/10/30 04:24:38;;;;;;;24.70;2.88;;;10.40;99.90;;;;;;5004596;28;20485;-68
2023/10/30 04:27:05;;;;;;;8.95;2.03;;;10.40;99.90;;;;;;4982626;28;20082;-69
2023/10/30 04:29:32;;;;;;;15.75;2.55;;;10.40;99.90;;;;;;4997179;28;20117;-69
2023/10/30 04:31:59;;;;;;;15.02;2.83;;;10.40;99.90;;;;;;4995694;28;20038;-69
2023/10/30 04:34:26;;;;;;;22.67;3.63;;;10.40;99.90;;;;;;5004678;28;20561;-69
2023/10/30 04:36:53;;;;;;;18.15;3.22;;;10.40;99.90;;;;;;4994021;28;20105;-68
2023/10/30 04:39:20;;;;;;;12.93;2.42;;;10.30;99.90;;;;;;4996647;28;20043;-68
2023/10/30 04:41:47;;;;;;;12.52;2.25;;;10.40;99.90;;;;;;4998346;28;20081;-68
2023/10/30 04:44:13;;;;;;;10.98;2.38;;;10.40;99.90;;;;;;5003879;28;20085;-68
2023/10/30 04:46:40;;;;;;;16.05;2.08;;;10.30;99.90;;;;;;4995369;28;20046;-68
2023/10/30 04:49:07;;;;;;;15.52;2.38;;;10.30;99.90;;;;;;5001205;28;20561;-68
2023/10/30 04:51:34;;;;;;;12.75;3.22;;;10.20;99.90;;;;;;4998351;28;20468;-68
2023/10/30 04:54:01;;;;;;;18.23;2.90;;;10.30;99.90;;;;;;4982649;28;20073;-68
2023/10/30 04:56:28;;;;;;;17.13;2.35;;;10.30;99.90;;;;;;4990987;28;20042;-69
2023/10/30 04:58:55;;;;;;;15.52;2.33;;;10.30;99.90;;;;;;4997010;28;20049;-68
2023/10/30 05:01:22;;;;;;;27.77;4.63;;;10.30;99.90;;;;;;4999319;28;20050;-68
2023/10/30 05:03:48;;;;;;;15.75;3.08;;;10.30;99.90;;;;;;4997225;28;20137;-68
2023/10/30 05:06:16;;;;;;;16.05;2.40;;;10.30;99.90;;;;;;4990198;28;20493;-69
2023/10/30 05:08:43;;;;;;;12.93;2.72;;;10.30;99.90;;;;;;5000393;28;20056;-70
2023/10/30 05:11:10;;;;;;;22.45;3.85;;;10.30;99.90;;;;;;5003756;28;20127;-68
2023/10/30 05:13:37;;;;;;;25.77;3.42;;;10.30;99.90;;;;;;4993480;28;20135;-68
2023/10/30 05:16:04;;;;;;;13.48;3.22;;;10.30;99.90;;;;;;4992631;28;20502;-68
2023/10/30 05:18:31;;;;;;;18.95;3.42;;;10.30;99.90;;;;;;5004145;28;20089;-69
2023/10/30 05:20:58;;;;;;;20.75;4.43;;;10.30;99.90;;;;;;4988660;28;20096;-68
2023/10/30 05:23:24;;;;;;;16.77;3.33;;;10.30;99.90;;;;;;4990969;28;20078;-68
2023/10/30 05:25:51;;;;;;;15.13;2.38;;;10.40;99.90;;;;;;5001263;28;20340;-68
2023/10/30 05:28:18;;;;;;;17.95;3.00;;;10.40;99.90;;;;;;4994419;28;20078;-69
2023/10/30 05:30:45;;;;;;;18.02;4.88;;;10.40;99.90;;;;;;4995375;28;20100;-69
2023/10/30 05:33:12;;;;;;;11.93;2.25;;;10.40;99.90;;;;;;4991034;28;20137;-69
2023/10/30 05:35:39;;;;;;;16.63;4.03;;;10.40;99.90;;;;;;4976424;28;20142;-68
2023/10/30 05:38:06;;;;;;;23.88;4.25;;;10.40;99.90;;;;;;4990730;28;20256;-69
2023/10/30 05:40:32;;;;;;;13.82;2.83;;;10.40;99.90;;;;;;4987937;28;20047;-69
2023/10/30 05:42:59;;;;;;;18.42;2.83;;;10.40;99.90;;;;;;4994257;28;20046;-68
2023/10/30 05:45:26;;;;;;;14.45;2.97;;;10.30;99.90;;;;;;4996891;28;20080;-69
2023/10/30 05:47:53;;;;;;;15.25;2.67;;;10.40;99.90;;;;;;4998487;28;20425;-68
2023/10/30 05:50:20;;;;;;;17.52;3.40;;;10.40;99.90;;;;;;4996946;28;20489;-69
2023/10/30 05:52:47;;;;;;;23.75;3.13;;;10.40;99.90;;;;;;5002522;28;20045;-68
2023/10/30 05:55:14;;;;;;;18.45;3.17;;;10.30;99.90;;;;;;4993119;28;20046;-68
2023/10/30 05:57:43;;;;;;;19.00;2.00;;;10.30;99.90;;;;;;5003055;28;20042;-68
2023/10/30 06:00:11;;;;;;;10.32;2.92;;;10.30;99.90;;;;;;4994230;28;20046;-69
2023/10/30 06:02:37;;;;;;;16.98;3.00;;;10.30;99.90;;;;;;4991720;28;20043;-69
2023/10/30 06:05:06;;;;;;;13.75;2.88;;;10.30;99.90;;;;;;4988313;28;20413;-70
2023/10/30 06:07:34;;;;;;;14.80;2.78;;;10.30;99.90;;;;;;4987951;28;20123;-67
2023/10/30 06:10:01;;;;;;;9.38;1.92;;;10.40;99.90;;;;;;5004146;28;20041;-68
2023/10/30 06:12:28;;;;;;;19.17;3.33;;;10.30;99.90;;;;;;4993780;28;20054;-68
2023/10/30 06:14:55;;;;;;;17.70;2.55;;;10.40;99.90;;;;;;4997804;28;20047;-69
2023/10/30 06:17:22;;;;;;;16.73;3.38;;;10.30;99.90;;;;;;4991829;28;20061;-69
2023/10/30 06:19:48;;;;;;;19.55;2.58;;;10.30;99.90;;;;;;4994637;28;20065;-70
2023/10/30 06:22:16;;;;;;;22.42;3.65;;;10.40;99.90;;;;;;4991831;28;20085;-69
2023/10/30 06:24:42;;;;;;;23.35;2.83;;;10.40;99.90;;;;;;4996514;28;20092;-70
2023/10/30 06:27:09;;;;;;;13.27;3.05;;;10.40;99.90;;;;;;4996705;28;20065;-70
2023/10/30 06:29:36;;;;;;;20.00;2.45;;;10.40;99.90;;;;;;4997088;28;20046;-70
2023/10/30 06:32:03;;;;;;;26.10;3.38;;;10.40;99.90;;;;;;5002878;28;20053;-69
2023/10/30 06:34:33;;;;;;;16.05;2.85;;;10.40;99.90;;;;;;4999576;28;20144;-69
2023/10/30 06:36:59;;;;;;;18.13;2.50;;;10.40;99.90;;;;;;5000220;28;20682;-69
2023/10/30 06:39:26;;;;;;;21.45;3.20;;;10.40;99.90;;;;;;5003485;28;20065;-70
2023/10/30 06:41:55;;;;;;;13.90;2.53;;;10.40;99.90;;;;;;4993253;28;20042;-69
2023/10/30 06:44:25;;;;;;;15.65;2.58;;;10.50;99.90;;;;;;4992414;28;20474;-69
2023/10/30 06:46:52;;;;;;;23.48;4.95;;;10.40;99.90;;;;;;5000039;28;20046;-69
2023/10/30 06:49:23;;;;;;;17.02;3.17;;;10.40;99.90;;;;;;5003327;28;20214;-69
2023/10/30 06:51:49;;;;;;;21.25;2.65;;;10.50;99.90;;;;;;4996490;28;20101;-69
2023/10/30 06:54:20;;;;;;;18.75;2.10;;;10.50;99.90;;;;;;4765052;28;10000893;-69
2023/10/30 06:56:47;;;;;;;28.70;4.10;;;10.50;99.90;;;;;;4987430;28;20760;-70
2023/10/30 06:59:14;;;;;;;14.38;2.45;;;10.50;99.90;;;;;;4996498;28;20513;-69
2023/10/30 07:01:45;;;;;;;20.25;5.30;;;10.60;99.90;;;;;;5000507;28;20046;-69
2023/10/30 07:04:12;;;;;;;21.50;4.32;;;10.60;99.90;;;;;;4993859;28;20058;-70
2023/10/30 07:06:41;;;;;;;14.50;3.15;;;10.60;99.90;;;;;;4984687;28;20042;-70
2023/10/30 07:09:08;;;;;;;20.85;3.05;;;10.60;99.90;;;;;;4988907;28;20054;-69
2023/10/30 07:11:36;;;;;;;18.25;3.15;;;10.60;99.90;;;;;;4995432;28;20073;-69
2023/10/30 07:14:03;;;;;;;11.82;2.17;;;10.70;99.90;;;;;;4992868;28;20065;-70
2023/10/30 07:16:30;;;;;;;15.00;2.88;;;10.60;99.90;;;;;;4994662;28;20046;-67
2023/10/30 07:18:57;;;;;;;18.80;2.30;;;10.70;99.90;;;;;;4979348;28;20057;-69
2023/10/30 07:21:25;;;;;;;16.60;2.33;;;10.70;99.90;;;;;;4995232;28;20037;-69
2023/10/30 07:23:52;;;;;;;15.27;2.22;;;10.70;99.90;;;;;;4997772;28;20081;-68
2023/10/30 07:26:20;;;;;;;14.98;2.60;;;10.80;99.90;;;;;;4993470;28;20120;-70
2023/10/30 07:28:51;;;;;;;21.30;3.22;;;10.80;99.90;;;;;;4999481;28;20655;-69
2023/10/30 07:31:18;;;;;;;18.83;3.28;;;10.80;99.90;;;;;;4995707;28;20137;-69
2023/10/30 07:33:46;;;;;;;24.60;2.63;;;10.90;99.90;;;;;;5003447;28;20429;-69
2023/10/30 07:36:12;;;;;;;23.05;3.70;;;10.80;99.90;;;;;;5001861;28;20053;-65
2023/10/30 07:38:40;;;;;;;14.05;1.90;;;10.80;99.90;;;;;;5002218;28;20077;-65
2023/10/30 07:41:07;;;;;;;13.20;2.15;;;10.90;99.90;;;;;;4994772;28;20037;-66
2023/10/30 07:43:34;;;;;;;13.23;1.90;;;10.90;99.90;;;;;;5003998;28;20050;-65
2023/10/30 07:46:01;;;;;;;19.30;3.33;;;10.90;99.90;;;;;;4995196;28;20042;-65
2023/10/30 07:48:28;;;;;;;17.85;2.42;;;10.90;99.90;;;;;;5003711;28;20476;-65
2023/10/30 07:50:55;;;;;;;15.40;3.53;;;11.00;99.90;;;;;;4997858;28;20076;-65
2023/10/30 07:53:22;;;;;;;15.52;2.38;;;11.00;99.90;;;;;;4996918;28;20432;-68
2023/10/30 07:55:50;;;;;;;19.38;3.15;;;11.00;99.90;;;;;;5000822;28;20099;-67
2023/10/30 07:58:17;;;;;;;26.20;2.95;;;11.10;99.90;;;;;;4991298;28;20461;-65
2023/10/30 08:00:44;;;;;;;17.42;2.58;;;11.10;99.90;;;;;;5002557;28;20573;-66
2023/10/30 08:03:24;;;;;;;25.95;3.10;;;11.20;99.90;;;;;;4985415;28;20077;-66
2023/10/30 08:05:51;;;;;;;19.85;2.92;;;11.20;99.90;;;;;;5002720;28;20064;-64
2023/10/30 08:08:18;;;;;;;22.92;3.25;;;11.20;99.90;;;;;;5001309;28;20050;-64
2023/10/30 08:10:45;;;;;;;21.13;3.08;;;11.30;99.90;;;;;;5000951;28;20049;-65
2023/10/30 08:13:12;;;;;;;32.47;6.70;;;11.30;99.90;;;;;;4999348;28;20060;-64
2023/10/30 08:15:39;;;;;;;19.20;2.95;;;11.40;99.90;;;;;;4999502;28;20209;-64
2023/10/30 08:18:07;;;;;;;17.30;2.22;;;11.50;99.90;;;;;;4993504;28;20060;-65
2023/10/30 08:20:34;;;;;;;17.13;2.00;;;11.50;99.90;;;;;;4999537;28;20409;-65
2023/10/30 08:23:00;;;;;;;12.05;3.03;;;11.60;99.90;;;;;;4994751;28;20042;-65
2023/10/30 08:25:27;;;;;;;20.10;2.85;;;11.60;99.90;;;;;;4994557;28;20050;-65
2023/10/30 08:27:57;;;;;;;21.20;4.57;;;11.60;99.90;;;;;;4995572;28;20548;-65
2023/10/30 08:30:25;;;;;;;18.98;3.33;;;11.60;99.90;;;;;;4989046;28;20533;-65
2023/10/30 08:32:52;;;;;;;20.30;3.05;;;11.60;99.90;;;;;;4997185;28;20095;-65
2023/10/30 08:35:18;;;;;;;19.73;2.80;;;11.60;99.90;;;;;;5001414;28;20096;-64
2023/10/30 08:37:48;;;;;;;16.83;2.53;;;11.50;99.90;;;;;;5000657;28;20060;-64
2023/10/30 08:40:15;;;;;;;20.45;3.70;;;11.50;99.90;;;;;;5001394;28;20050;-65
2023/10/30 08:42:43;;;;;;;17.00;2.33;;;11.50;99.90;;;;;;4993303;28;20060;-65
2023/10/30 08:45:10;;;;;;;12.63;1.88;;;11.40;99.90;;;;;;5004921;28;20096;-65
2023/10/30 08:47:38;;;;;;;13.23;1.67;;;11.40;99.90;;;;;;4989905;28;20058;-65
2023/10/30 08:50:06;;;;;;;9.02;1.75;;;11.30;99.90;;;;;;4991633;28;20124;-65
2023/10/30 08:52:33;;;;;;;6.18;1.50;;;11.20;99.90;;;;;;4998021;28;20049;-65
2023/10/30 08:55:00;;;;;;;7.75;1.95;;;11.10;99.90;;;;;;5001781;28;20072;-65
2023/10/30 08:57:27;;;;;;;4.05;1.15;;;11.10;99.90;;;;;;4998188;28;20072;-65
2023/10/30 08:59:54;;;;;;;9.95;1.10;;;11.10;99.90;;;;;;4990233;28;20051;-65
2023/10/30 09:02:20;;;;;;;11.13;2.22;;;11.10;99.90;;;;;;4987426;28;20046;-65
2023/10/30 09:04:50;;;;;;;10.27;1.85;;;11.00;99.90;;;;;;4995805;28;20042;-64
2023/10/30 09:07:17;;;;;;;7.65;1.40;;;11.00;99.90;;;;;;4994470;28;20046;-65
2023/10/30 09:09:44;;;;;;;10.30;1.58;;;10.90;99.90;;;;;;4989474;28;20469;-64
2023/10/30 09:12:11;;;;;;;8.98;1.80;;;10.90;99.90;;;;;;4996276;28;20068;-65
2023/10/30 09:14:38;;;;;;;5.55;1.17;;;10.90;99.90;;;;;;4986674;28;20054;-65
2023/10/30 09:17:08;;;;;;;8.48;1.20;;;10.80;99.90;;;;;;4989316;28;20042;-65
2023/10/30 09:19:36;;;;;;;9.32;1.45;;;10.90;99.90;;;;;;4993908;28;20042;-66
2023/10/30 09:22:03;;;;;;;3.28;1.10;;;10.80;99.90;;;;;;4635088;28;10000101;-66
2023/10/30 09:24:30;;;;;;;6.93;1.00;;;10.80;99.90;;;;;;4983729;28;20556;-69
2023/10/30 09:26:57;;;;;;;8.30;1.63;;;10.80;99.90;;;;;;5002858;28;20099;-66
2023/10/30 09:29:24;;;;;;;4.65;1.13;;;10.80;99.90;;;;;;5003712;28;20121;-65
2023/10/30 09:31:51;;;;;;;4.13;1.23;;;10.70;99.90;;;;;;5000130;28;20106;-66
2023/10/30 09:34:18;;;;;;;9.00;1.25;;;10.70;99.90;;;;;;4990619;28;20489;-67
2023/10/30 09:36:45;;;;;;;4.68;1.05;;;10.60;99.90;;;;;;4988395;28;20089;-66
2023/10/30 09:39:12;;;;;;;3.63;1.15;;;10.60;99.90;;;;;;4999008;28;20049;-66
2023/10/30 09:41:41;;;;;;;9.15;1.25;;;10.60;99.90;;;;;;4981631;28;20042;-66
2023/10/30 09:44:09;;;;;;;6.00;1.30;;;10.60;99.90;;;;;;4997464;28;20057;-66
2023/10/30 09:46:39;;;;;;;4.90;1.30;;;10.60;99.90;;;;;;4996482;28;20081;-67
2023/10/30 09:49:08;;;;;;;10.05;2.00;;;10.50;99.90;;;;;;4989250;28;20062;-68
2023/10/30 09:51:36;;;;;;;9.55;1.50;;;10.50;99.90;;;;;;4999625;28;20522;-68
2023/10/30 09:54:03;;;;;;;5.70;1.25;;;10.50;99.90;;;;;;5001410;28;20123;-67
2023/10/30 09:56:31;;;;;;;7.68;1.40;;;10.50;99.90;;;;;;4999192;28;20081;-68
2023/10/30 09:58:59;;;;;;;5.35;1.10;;;10.50;99.90;;;;;;4998518;28;20072;-69
2023/10/30 10:01:26;;;;;;;4.57;1.27;;;10.50;99.90;;;;;;4995379;28;20088;-67
2023/10/30 10:03:54;;;;;;;7.72;1.42;;;10.50;99.90;;;;;;5001302;28;20085;-68
2023/10/30 10:06:21;;;;;;;7.25;1.45;;;10.50;99.90;;;;;;5006384;28;20421;-67
2023/10/30 10:08:48;;;;;;;4.63;1.08;;;10.50;99.90;;;;;;4993069;28;20221;-68
2023/10/30 10:11:15;;;;;;;5.78;1.20;;;10.60;99.90;;;;;;5000006;28;20045;-68
2023/10/30 10:13:48;;;;;;;8.57;1.35;;;10.60;99.90;;;;;;4992187;28;20379;-67
2023/10/30 10:16:31;;;;;;;5.10;1.27;;;10.70;99.90;;;;;;4981951;28;20050;-68
2023/10/30 10:18:58;;;;;;;5.32;1.00;;;10.70;99.90;;;;;;5005279;28;20480;-67
2023/10/30 10:21:25;;;;;;;7.20;1.30;;;10.80;99.90;;;;;;4995915;28;20038;-67
2023/10/30 10:23:52;;;;;;;7.05;1.27;;;10.80;99.90;;;;;;4994564;28;20050;-67
2023/10/30 10:26:20;;;;;;;8.15;1.58;;;10.90;99.90;;;;;;5000106;28;20245;-67
2023/10/30 10:28:47;;;;;;;5.30;1.10;;;10.90;99.90;;;;;;4992990;28;20657;-68
2023/10/30 10:31:14;;;;;;;8.77;2.45;;;11.00;99.90;;;;;;5003583;28;20054;-68
2023/10/30 10:33:41;;;;;;;13.00;1.58;;;11.00;99.90;;;;;;4997661;28;20048;-68
2023/10/30 10:36:11;;;;;;;8.95;1.45;;;11.10;99.90;;;;;;5005808;28;20073;-68
2023/10/30 10:38:37;;;;;;;6.07;1.35;;;11.10;99.90;;;;;;4997512;28;20054;-66
2023/10/30 10:41:05;;;;;;;7.30;1.20;;;11.10;99.90;;;;;;4991269;28;20061;-67
2023/10/30 10:43:33;;;;;;;6.13;1.23;;;11.10;99.90;;;;;;4997626;28;20042;-68
2023/10/30 10:45:59;;;;;;;9.13;1.40;;;11.10;99.90;;;;;;5003159;28;20054;-67
2023/10/30 10:48:27;;;;;;;7.72;1.58;;;11.10;99.90;;;;;;4999561;28;20086;-67
2023/10/30 10:50:57;;;;;;;9.80;1.30;;;11.10;99.90;;;;;;5000990;28;20064;-67
2023/10/30 10:53:26;;;;;;;7.25;1.45;;;11.10;99.90;;;;;;5000689;28;20097;-68
2023/10/30 10:55:53;;;;;;;5.93;1.65;;;11.20;99.90;;;;;;4993236;28;20271;-68
2023/10/30 10:58:22;;;;;;;4.40;1.23;;;11.20;99.90;;;;;;5002036;28;20043;-68
2023/10/30 11:00:51;;;;;;;5.90;1.35;;;11.20;99.90;;;;;;4996579;28;20585;-67
2023/10/30 11:03:21;;;;;;;6.43;1.52;;;11.10;99.90;;;;;;5003318;28;20057;-67
2023/10/30 11:05:49;;;;;;;5.07;1.17;;;11.10;99.90;;;;;;4994124;28;20077;-68
2023/10/30 11:08:38;;;;;;;5.00;1.15;;;11.10;99.90;;;;;;5001537;28;20046;-67
2023/10/30 11:11:12;;;;;;;10.02;1.63;;;11.20;99.90;;;;;;4999746;28;20366;-67
2023/10/30 11:14:08;;;;;;;6.38;0.93;;;11.20;99.90;;;;;;4996452;28;20658;-67
2023/10/30 11:16:47;;;;;;;5.00;1.15;;;11.20;99.90;;;;;;4980618;28;20124;-67
2023/10/30 11:19:21;;;;;;;4.65;1.25;;;11.20;99.90;;;;;;4997180;28;20050;-68
2023/10/30 11:21:48;;;;;;;4.40;0.98;;;11.30;99.90;;;;;;4989662;28;20096;-66
2023/10/30 11:24:34;;;;;;;7.03;1.50;;;11.40;99.90;;;;;;5002033;28;20054;-68
2023/10/30 11:27:00;;;;;;;5.20;1.40;;;11.40;99.90;;;;;;4990010;28;20050;-68
2023/10/30 11:29:54;;;;;;;9.93;1.63;;;11.40;99.90;;;;;;5000344;28;20046;-67
2023/10/30 11:32:22;;;;;;;3.55;1.33;;;11.50;99.90;;;;;;4987895;28;20053;-68
2023/10/30 11:34:49;;;;;;;5.93;1.20;;;11.70;99.90;;;;;;4993386;28;20088;-67
2023/10/30 11:37:18;;;;;;;6.07;1.30;;;11.60;99.90;;;;;;4986999;28;20058;-68
2023/10/30 11:39:45;;;;;;;7.13;1.55;;;11.60;99.90;;;;;;5001499;28;20081;-67
2023/10/30 11:42:24;;;;;;;6.75;1.40;;;11.60;99.90;;;;;;5001045;28;20053;-67
2023/10/30 11:44:52;;;;;;;6.60;1.20;;;11.70;99.90;;;;;;4988725;28;20140;-67
2023/10/30 11:47:23;;;;;;;6.68;1.77;;;11.80;99.90;;;;;;5000684;28;20054;-67
2023/10/30 11:49:49;;;;;;;5.20;1.48;;;11.70;99.90;;;;;;4989585;28;20124;-67
2023/10/30 11:52:19;;;;;;;5.40;1.13;;;11.80;99.90;;;;;;4993163;28;20050;-68
2023/10/30 11:54:46;;;;;;;9.90;1.75;;;11.90;99.90;;;;;;4988573;28;20050;-67
2023/10/30 11:57:13;;;;;;;6.32;1.70;;;11.90;99.90;;;;;;4993336;28;20047;-67
2023/10/30 11:59:40;;;;;;;4.78;1.25;;;11.90;99.90;;;;;;4989098;28;20046;-68
2023/10/30 12:02:07;;;;;;;6.97;1.45;;;11.90;99.90;;;;;;4993009;28;20513;-66
2023/10/30 12:04:34;;;;;;;7.72;1.67;;;12.10;99.90;;;;;;4993311;28;20460;-67
2023/10/30 12:07:01;;;;;;;8.15;2.20;;;12.00;99.90;;;;;;5004569;28;20485;-67
2023/10/30 12:09:28;;;;;;;8.27;1.63;;;12.00;99.90;;;;;;4991475;28;20057;-67
2023/10/30 12:11:55;;;;;;;7.32;1.27;;;12.10;99.90;;;;;;4993904;28;20129;-65
2023/10/30 12:14:22;;;;;;;10.52;1.83;;;12.10;99.90;;;;;;4988487;28;20071;-66
2023/10/30 12:16:50;;;;;;;6.63;1.60;;;12.20;99.90;;;;;;4976243;28;20130;-67
2023/10/30 12:19:20;;;;;;;10.63;2.42;;;12.20;99.90;;;;;;4987853;28;20050;-66
2023/10/30 12:21:50;;;;;;;10.63;2.65;;;12.20;99.90;;;;;;4997845;28;20116;-67
2023/10/30 12:24:18;;;;;;;7.30;1.35;;;12.30;99.90;;;;;;4995962;28;20065;-68
2023/10/30 12:26:46;;;;;;;15.90;2.72;;;12.30;99.90;;;;;;4999591;28;20085;-67
2023/10/30 12:29:21;;;;;;;10.80;1.67;;;12.30;99.90;;;;;;4992880;28;20042;-67
2023/10/30 12:32:02;;;;;;;14.90;1.70;;;12.50;99.90;;;;;;4974213;28;20047;-67
2023/10/30 12:34:30;;;;;;;8.25;1.48;;;12.50;99.90;;;;;;4995645;28;20607;-67
2023/10/30 12:36:57;;;;;;;8.75;1.73;;;12.50;99.90;;;;;;5001833;28;20057;-67
2023/10/30 12:39:26;;;;;;;7.18;1.38;;;12.50;99.90;;;;;;5002076;28;20177;-67
2023/10/30 12:41:55;;;;;;;9.15;1.67;;;12.50;99.90;;;;;;4995583;28;20078;-67